Time,TemperatureF,DewpointF,PressureIn,WindDirection,WindDirectionDegrees,WindSpeedMPH,WindSpeedGustMPH,Humidity,HourlyPrecipIn,Conditions,Clouds,dailyrainin,SoftwareType,DateUTC
2013-12-22 00:04:00,69.4,67.0,30.09,SSE,166,2.0,5.0,91,0.00,,,0.00,weatherlink.com 1.10,2013-12-22 05:04:00,
2013-12-22 00:19:00,69.4,67.0,30.09,SE,128,2.0,5.0,91,0.00,,,0.00,weatherlink.com 1.10,2013-12-22 05:19:00,
2013-12-22 00:34:00,69.3,67.0,30.09,ENE,74,2.0,3.0,92,0.00,,,0.00,weatherlink.com 1.10,2013-12-22 05:34:00,
2013-12-22 00:49:00,69.0,67.0,30.08,SE,131,0.0,3.0,92,0.00,,,0.00,weatherlink.com 1.10,2013-12-22 05:49:00,
2013-12-22 01:04:00,68.8,66.0,30.08,SE,130,0.0,3.0,92,0.00,,,0.00,weatherlink.com 1.10,2013-12-22 06:04:00,
2013-12-22 01:19:00,68.6,67.0,30.07,SSE,153,0.0,3.0,93,0.00,,,0.00,weatherlink.com 1.10,2013-12-22 06:19:00,
2013-12-22 01:34:00,68.4,66.0,30.08,SSE,149,0.0,3.0,93,0.00,,,0.00,weatherlink.com 1.10,2013-12-22 06:34:00,
2013-12-22 01:49:00,68.2,66.0,30.08,ESE,118,0.0,1.0,93,0.00,,,0.00,weatherlink.com 1.10,2013-12-22 06:49:00,
2013-12-22 02:04:00,67.8,66.0,30.08,SE,132,0.0,0.0,94,0.00,,,0.00,weatherlink.com 1.10,2013-12-22 07:04:00,
2013-12-22 02:19:00,67.5,66.0,30.08,ESE,111,0.0,1.0,94,0.00,,,0.00,weatherlink.com 1.10,2013-12-22 07:19:00,
2013-12-22 02:34:00,67.6,66.0,30.08,East,100,1.0,1.0,94,0.00,,,0.00,weatherlink.com 1.10,2013-12-22 07:34:00,
2013-12-22 02:49:00,67.7,66.0,30.08,East,101,1.0,2.0,95,0.00,,,0.00,weatherlink.com 1.10,2013-12-22 07:49:00,
2013-12-22 03:04:00,67.7,66.0,30.07,SE,141,0.0,1.0,95,0.00,,,0.00,weatherlink.com 1.10,2013-12-22 08:04:00,
2013-12-22 03:19:00,67.2,66.0,30.08,SE,128,0.0,0.0,95,0.00,,,0.00,weatherlink.com 1.10,2013-12-22 08:19:00,
2013-12-22 03:34:00,66.3,65.0,30.08,SE,129,0.0,0.0,95,0.00,,,0.00,weatherlink.com 1.10,2013-12-22 08:34:00,
2013-12-22 03:49:00,66.6,65.0,30.07,SE,129,0.0,0.0,95,0.00,,,0.00,weatherlink.com 1.10,2013-12-22 08:49:00,
2013-12-22 04:04:00,66.9,66.0,30.07,ESE,105,0.0,1.0,96,0.00,,,0.00,weatherlink.com 1.10,2013-12-22 09:04:00,
2013-12-22 04:19:00,66.8,66.0,30.08,ESE,118,0.0,0.0,96,0.00,,,0.00,weatherlink.com 1.10,2013-12-22 09:19:00,
2013-12-22 04:34:00,66.7,66.0,30.08,ESE,119,0.0,0.0,96,0.00,,,0.00,weatherlink.com 1.10,2013-12-22 09:34:00,
2013-12-22 04:49:00,65.8,65.0,30.08,ESE,118,0.0,0.0,96,0.00,,,0.00,weatherlink.com 1.10,2013-12-22 09:49:00,
2013-12-22 05:05:00,65.0,64.0,30.08,ESE,118,0.0,0.0,96,0.00,,,0.00,weatherlink.com 1.10,2013-12-22 10:05:00,
2013-12-22 05:19:00,65.9,65.0,30.08,ESE,118,0.0,0.0,96,0.00,,,0.00,weatherlink.com 1.10,2013-12-22 10:19:00,
2013-12-22 05:34:00,66.5,65.0,30.08,ESE,111,0.0,1.0,96,0.00,,,0.00,weatherlink.com 1.10,2013-12-22 10:34:00,
2013-12-22 05:49:00,66.6,66.0,30.08,ESE,118,0.0,1.0,96,0.00,,,0.00,weatherlink.com 1.10,2013-12-22 10:49:00,
2013-12-22 06:04:00,66.4,65.0,30.09,ESE,119,0.0,0.0,96,0.00,,,0.00,weatherlink.com 1.10,2013-12-22 11:04:00,
2013-12-22 06:20:00,66.7,66.0,30.08,SE,128,1.0,2.0,97,0.00,,,0.00,weatherlink.com 1.10,2013-12-22 11:20:00,
2013-12-22 06:34:00,66.8,66.0,30.09,SE,125,0.0,2.0,97,0.00,,,0.00,weatherlink.com 1.10,2013-12-22 11:34:00,
2013-12-22 06:49:00,66.9,66.0,30.09,ESE,110,1.0,2.0,97,0.00,,,0.00,weatherlink.com 1.10,2013-12-22 11:49:00,
2013-12-22 07:04:00,66.8,66.0,30.10,ESE,110,0.0,1.0,97,0.00,,,0.00,weatherlink.com 1.10,2013-12-22 12:04:00,
2013-12-22 07:19:00,66.8,66.0,30.11,ESE,113,0.0,0.0,97,0.00,,,0.00,weatherlink.com 1.10,2013-12-22 12:19:00,
2013-12-22 07:34:00,66.4,66.0,30.11,ESE,113,0.0,0.0,97,0.00,,,0.00,weatherlink.com 1.10,2013-12-22 12:34:00,
2013-12-22 07:49:00,66.5,66.0,30.11,ESE,113,0.0,0.0,97,0.00,,,0.00,weatherlink.com 1.10,2013-12-22 12:49:00,
2013-12-22 08:04:00,67.0,66.0,30.12,ESE,113,0.0,0.0,97,0.00,,,0.00,weatherlink.com 1.10,2013-12-22 13:04:00,
2013-12-22 08:20:00,68.1,67.0,30.12,SE,126,0.0,0.0,97,0.00,,,0.00,weatherlink.com 1.10,2013-12-22 13:20:00,
2013-12-22 08:35:00,69.1,68.0,30.12,ESE,107,0.0,2.0,97,0.00,,,0.00,weatherlink.com 1.10,2013-12-22 13:35:00,
2013-12-22 08:50:00,70.3,69.0,30.12,SE,129,1.0,3.0,97,0.00,,,0.00,weatherlink.com 1.10,2013-12-22 13:50:00,
2013-12-22 09:05:00,71.3,70.0,30.12,SSE,152,3.0,7.0,97,0.00,,,0.00,weatherlink.com 1.10,2013-12-22 14:05:00,
2013-12-22 09:20:00,72.7,72.0,30.13,ESE,115,7.0,8.0,96,0.00,,,0.00,weatherlink.com 1.10,2013-12-22 14:20:00,
2013-12-22 09:35:00,74.5,72.0,30.13,SSW,208,3.0,11.0,93,0.00,,,0.00,weatherlink.com 1.10,2013-12-22 14:35:00,
2013-12-22 09:50:00,76.0,72.0,30.13,ESE,123,9.0,14.0,87,0.00,,,0.00,weatherlink.com 1.10,2013-12-22 14:50:00,
2013-12-22 10:05:00,77.3,72.0,30.13,SSE,162,9.0,16.0,84,0.00,,,0.00,weatherlink.com 1.10,2013-12-22 15:05:00,
2013-12-22 10:20:00,77.9,72.0,30.13,SE,130,8.0,17.0,82,0.00,,,0.00,weatherlink.com 1.10,2013-12-22 15:20:00,
2013-12-22 10:35:00,78.2,72.0,30.13,SSW,208,6.0,15.0,82,0.00,,,0.00,weatherlink.com 1.10,2013-12-22 15:35:00,
2013-12-22 10:50:00,78.9,72.0,30.13,SSW,195,7.0,11.0,80,0.00,,,0.00,weatherlink.com 1.10,2013-12-22 15:50:00,
2013-12-22 11:05:00,79.9,73.0,30.12,South,172,7.0,18.0,78,0.00,,,0.00,weatherlink.com 1.10,2013-12-22 16:05:00,
2013-12-22 11:20:00,80.5,72.0,30.12,SW,219,3.0,16.0,76,0.00,,,0.00,weatherlink.com 1.10,2013-12-22 16:20:00,
2013-12-22 11:35:00,81.1,72.0,30.12,SE,132,4.0,16.0,74,0.00,,,0.00,weatherlink.com 1.10,2013-12-22 16:35:00,
2013-12-22 11:50:00,81.5,72.0,30.12,South,173,8.0,14.0,73,0.00,,,0.00,weatherlink.com 1.10,2013-12-22 16:50:00,
2013-12-22 12:05:00,82.0,72.0,30.12,SSW,192,2.0,11.0,71,0.00,,,0.00,weatherlink.com 1.10,2013-12-22 17:05:00,
2013-12-22 12:20:00,82.4,72.0,30.11,SW,228,2.0,8.0,70,0.00,,,0.00,weatherlink.com 1.10,2013-12-22 17:20:00,
2013-12-22 12:35:00,83.0,72.0,30.11,SSW,204,4.0,10.0,69,0.00,,,0.00,weatherlink.com 1.10,2013-12-22 17:35:00,
2013-12-22 12:50:00,83.0,72.0,30.10,West,259,2.0,9.0,70,0.00,,,0.00,weatherlink.com 1.10,2013-12-22 17:50:00,
2013-12-22 13:05:00,84.2,72.0,30.09,SSE,152,4.0,10.0,66,0.00,,,0.00,weatherlink.com 1.10,2013-12-22 18:05:00,
2013-12-22 13:20:00,83.7,72.0,30.08,ESE,108,5.0,10.0,67,0.00,,,0.00,weatherlink.com 1.10,2013-12-22 18:20:00,
2013-12-22 13:35:00,84.1,72.0,30.07,SE,138,7.0,11.0,66,0.00,,,0.00,weatherlink.com 1.10,2013-12-22 18:35:00,
2013-12-22 13:50:00,84.8,71.0,30.07,SSE,149,5.0,9.0,64,0.00,,,0.00,weatherlink.com 1.10,2013-12-22 18:50:00,
2013-12-22 14:05:00,84.5,71.0,30.06,ESE,110,6.0,11.0,65,0.00,,,0.00,weatherlink.com 1.10,2013-12-22 19:05:00,
2013-12-22 14:21:00,85.4,71.0,30.06,South,186,3.0,10.0,62,0.00,,,0.00,weatherlink.com 1.10,2013-12-22 19:21:00,
2013-12-22 14:36:00,86.0,71.0,30.06,SSW,197,4.0,9.0,62,0.00,,,0.00,weatherlink.com 1.10,2013-12-22 19:36:00,
2013-12-22 14:51:00,85.8,71.0,30.06,SE,126,7.0,9.0,62,0.00,,,0.00,weatherlink.com 1.10,2013-12-22 19:51:00,
2013-12-22 15:06:00,86.0,71.0,30.06,SW,219,2.0,11.0,62,0.00,,,0.00,weatherlink.com 1.10,2013-12-22 20:06:00,
2013-12-22 15:21:00,86.3,71.0,30.06,SE,145,5.0,5.0,61,0.00,,,0.00,weatherlink.com 1.10,2013-12-22 20:21:00,
2013-12-22 15:36:00,86.2,71.0,30.07,South,176,5.0,8.0,61,0.00,,,0.00,weatherlink.com 1.10,2013-12-22 20:36:00,
2013-12-22 15:51:00,85.0,71.0,30.07,WSW,248,2.0,4.0,63,0.00,,,0.00,weatherlink.com 1.10,2013-12-22 20:51:00,
2013-12-22 16:06:00,83.8,70.0,30.07,SSW,200,1.0,4.0,64,0.00,,,0.00,weatherlink.com 1.10,2013-12-22 21:06:00,
2013-12-22 16:21:00,83.2,70.0,30.07,SE,146,1.0,6.0,65,0.00,,,0.00,weatherlink.com 1.10,2013-12-22 21:21:00,
2013-12-22 16:36:00,82.8,70.0,30.07,SW,235,1.0,5.0,66,0.00,,,0.00,weatherlink.com 1.10,2013-12-22 21:36:00,
2013-12-22 16:51:00,82.5,70.0,30.07,South,180,0.0,5.0,67,0.00,,,0.00,weatherlink.com 1.10,2013-12-22 21:51:00,
2013-12-22 17:06:00,82.2,71.0,30.08,SSE,152,1.0,2.0,68,0.00,,,0.00,weatherlink.com 1.10,2013-12-22 22:06:00,
2013-12-22 17:21:00,81.1,70.0,30.08,SSE,160,0.0,3.0,70,0.00,,,0.00,weatherlink.com 1.10,2013-12-22 22:21:00,
2013-12-22 17:36:00,79.7,70.0,30.08,SE,146,0.0,1.0,72,0.00,,,0.00,weatherlink.com 1.10,2013-12-22 22:36:00,
2013-12-22 17:51:00,78.1,70.0,30.09,SE,145,0.0,0.0,75,0.00,,,0.00,weatherlink.com 1.10,2013-12-22 22:51:00,
2013-12-22 18:06:00,76.6,69.0,30.09,SE,145,0.0,0.0,78,0.00,,,0.00,weatherlink.com 1.10,2013-12-22 23:06:00,
2013-12-22 18:21:00,75.4,69.0,30.10,SE,143,0.0,0.0,80,0.00,,,0.00,weatherlink.com 1.10,2013-12-22 23:21:00,
2013-12-22 18:36:00,74.8,69.0,30.10,SE,145,0.0,0.0,82,0.00,,,0.00,weatherlink.com 1.10,2013-12-22 23:36:00,
2013-12-22 18:51:00,75.2,69.0,30.11,SE,145,0.0,0.0,82,0.00,,,0.00,weatherlink.com 1.10,2013-12-22 23:51:00,
2013-12-22 19:06:00,75.1,69.0,30.11,SE,145,0.0,0.0,82,0.00,,,0.00,weatherlink.com 1.10,2013-12-23 00:06:00,
2013-12-22 19:21:00,75.7,70.0,30.11,SE,141,0.0,1.0,81,0.00,,,0.00,weatherlink.com 1.10,2013-12-23 00:21:00,
2013-12-22 19:36:00,75.8,70.0,30.12,SE,124,1.0,4.0,81,0.00,,,0.00,weatherlink.com 1.10,2013-12-23 00:36:00,
2013-12-22 19:51:00,76.1,70.0,30.12,East,98,0.0,2.0,80,0.00,,,0.00,weatherlink.com 1.10,2013-12-23 00:51:00,
2013-12-22 20:06:00,75.7,69.0,30.12,East,99,0.0,0.0,80,0.00,,,0.00,weatherlink.com 1.10,2013-12-23 01:06:00,
2013-12-22 20:21:00,74.9,69.0,30.12,ESE,118,1.0,2.0,81,0.00,,,0.00,weatherlink.com 1.10,2013-12-23 01:21:00,
2013-12-22 20:36:00,74.1,69.0,30.12,SE,128,1.0,1.0,83,0.00,,,0.00,weatherlink.com 1.10,2013-12-23 01:36:00,
2013-12-22 20:51:00,73.3,68.0,30.12,SE,129,0.0,1.0,84,0.00,,,0.00,weatherlink.com 1.10,2013-12-23 01:51:00,
2013-12-22 21:06:00,72.8,68.0,30.12,ESE,122,1.0,2.0,84,0.00,,,0.00,weatherlink.com 1.10,2013-12-23 02:06:00,
2013-12-22 21:21:00,72.4,67.0,30.12,SE,124,0.0,3.0,84,0.00,,,0.00,weatherlink.com 1.10,2013-12-23 02:21:00,
2013-12-22 21:36:00,71.7,67.0,30.13,SSE,149,0.0,1.0,85,0.00,,,0.00,weatherlink.com 1.10,2013-12-23 02:36:00,
2013-12-22 21:51:00,71.0,67.0,30.13,SE,139,0.0,1.0,87,0.00,,,0.00,weatherlink.com 1.10,2013-12-23 02:51:00,
2013-12-22 22:06:00,70.7,67.0,30.13,ESE,113,0.0,1.0,87,0.00,,,0.00,weatherlink.com 1.10,2013-12-23 03:06:00,
2013-12-22 22:21:00,70.1,67.0,30.13,SSE,163,0.0,1.0,88,0.00,,,0.00,weatherlink.com 1.10,2013-12-23 03:21:00,
2013-12-22 22:36:00,69.9,66.0,30.14,SE,136,0.0,2.0,88,0.00,,,0.00,weatherlink.com 1.10,2013-12-23 03:36:00,
2013-12-22 22:51:00,70.5,67.0,30.14,SSE,160,0.0,5.0,87,0.00,,,0.00,weatherlink.com 1.10,2013-12-23 03:51:00,
2013-12-22 23:06:00,71.3,67.0,30.14,SE,142,1.0,6.0,87,0.00,,,0.00,weatherlink.com 1.10,2013-12-23 04:06:00,
2013-12-22 23:21:00,71.7,67.0,30.14,SE,138,2.0,6.0,86,0.00,,,0.00,weatherlink.com 1.10,2013-12-23 04:21:00,
2013-12-22 23:36:00,71.6,68.0,30.14,SE,139,2.0,7.0,87,0.00,,,0.00,weatherlink.com 1.10,2013-12-23 04:36:00,
2013-12-22 23:51:00,71.6,68.0,30.14,SSE,166,1.0,7.0,88,0.00,,,0.00,weatherlink.com 1.10,2013-12-23 04:51:00,